EST,Max TemperatureF,Mean TemperatureF,Min TemperatureF,Max Dew PointF,MeanDew PointF,Min DewpointF,Max Humidity, Mean Humidity, Min Humidity, Max Sea Level PressureIn, Mean Sea Level PressureIn, Min Sea Level PressureIn, Max VisibilityMiles, Mean VisibilityMiles, Min VisibilityMiles, Max Wind SpeedMPH, Mean Wind SpeedMPH, Max Gust SpeedMPH,PrecipitationIn, CloudCover, Events, WindDirDegrees
2014-1-1,36,31,25,23,20,17,81,69,56,30.35,30.25,30.11,10,10,10,9,2,12,0.00,4,,40
2014-1-2,27,21,14,20,14,6,88,78,67,30.09,29.90,29.76,10,3,0,21,8,29,0.10,8,Fog-Snow,355
2014-1-3,16,11,6,7,2,-2,76,64,51,30.48,30.30,30.05,10,7,1,17,6,24,T,5,Snow,307
2014-1-4,34,20,6,12,6,1,80,58,35,30.35,30.21,30.12,10,10,10,20,6,26,0.00,1,,150
2014-1-5,50,36,21,43,27,14,86,72,58,30.13,29.84,29.34,10,10,6,17,5,25,0.23,8,Rain,146
2014-1-6,50,21,-9,39,5,-19,82,67,51,30.31,29.89,29.39,10,6,1,23,13,38,0.11,8,Rain-Snow,271
2014-1-7,8,0,-9,-4,-12,-20,69,63,57,30.47,30.39,30.26,10,7,2,18,10,29,T,7,Snow,236
2014-1-8,24,14,4,18,8,-3,84,68,52,30.53,30.47,30.43,10,8,2,13,3,16,0.01,7,Snow,197
2014-1-9,33,26,18,28,21,14,84,73,61,30.61,30.48,30.35,10,8,1,10,3,14,0.01,6,Snow,128
2014-1-10,47,44,40,42,33,27,92,89,85,30.33,30.21,29.83,10,5,1,10,5,,0.02,8,Rain-Snow,137
2014-1-11,56,46,35,49,43,26,93,79,65,29.78,29.57,29.40,10,8,2,24,11,37,0.86,8,Rain,233
2014-1-12,37,35,32,29,27,26,78,74,70,30.05,29.96,29.75,10,10,8,17,7,27,0.00,5,,220
2014-1-13,68,54,36,44,35,27,86,65,44,29.96,29.81,29.70,10,9,3,17,8,22,0.23,5,Rain,177
2014-1-14,64,50,34,43,34,23,80,55,36,29.83,29.78,29.71,10,8,3,16,5,24,0.07,6,Rain,274
2014-1-15,42,33,23,31,20,11,75,63,50,30.08,29.96,29.80,10,7,1,15,7,22,T,8,Rain-Snow,264
2014-1-16,31,26,20,24,15,11,73,60,47,30.04,29.92,29.80,10,10,2,17,7,24,T,6,Snow,188
2014-1-17,38,28,17,31,24,7,85,73,61,30.03,29.84,29.75,10,8,1,17,8,28,0.01,8,Rain-Snow,207
2014-1-18,19,15,11,14,8,1,84,73,61,30.09,29.98,29.84,10,8,1,15,6,19,0.02,7,Snow,195
2014-1-19,33,26,18,20,17,14,84,69,54,29.88,29.80,29.73,10,8,2,17,8,25,0.01,6,Snow,207
2014-1-20,37,30,23,27,23,17,85,72,59,29.97,29.82,29.66,10,9,6,14,7,21,0.00,6,,291
2014-1-21,24,14,4,17,7,-8,84,65,46,30.17,29.98,29.87,10,7,1,18,9,25,0.02,6,Snow,23
2014-1-22,12,5,-2,4,-2,-7,87,73,58,30.18,30.11,30.01,10,9,4,12,4,15,T,5,Snow,239
2014-1-23,12,8,3,5,0,-5,76,69,61,30.56,30.31,30.01,10,7,2,16,8,22,T,8,Snow,259
2014-1-24,19,9,-1,0,-4,-7,79,63,47,30.57,30.36,29.86,10,9,2,20,9,30,0.00,3,,212
2014-1-25,28,21,13,22,14,0,84,64,43,29.84,29.55,29.38,10,3,0,23,12,34,0.05,8,Fog-Snow,240
2014-1-26,35,20,5,23,7,-3,76,65,53,29.89,29.73,29.55,10,6,0,13,7,17,0.07,6,Snow,176
2014-1-27,41,20,-2,27,4,-13,63,57,50,30.41,29.98,29.50,10,8,2,28,12,40,T,6,Snow,272
2014-1-28,6,-6,-18,-8,-15,-22,86,66,45,30.52,30.43,30.36,10,10,4,9,2,12,0.00,0,,216
2014-1-29,17,1,-16,-2,-9,-20,81,59,37,30.37,30.35,30.30,10,10,10,20,6,26,0.00,0,,171
2014-1-30,34,14,-6,5,-2,-9,79,54,28,30.37,30.20,29.99,10,10,10,15,7,23,0.00,0,,157
2014-1-31,35,32,29,29,20,6,92,61,29,30.20,30.14,30.02,10,7,2,13,4,19,T,7,Snow,223